sensor_id;sensor_type;location;lat;lon;timestamp;pressure;altitude;pressure_sealevel;temperature;humidity
71573;BME280;59408;51.032;9.410;2023-04-16T00:01:39;99017.09;;;6.57;100.00
71573;BME280;59408;51.032;9.410;2023-04-16T00:04:07;99007.56;;;6.60;100.00
71573;BME280;59408;51.032;9.410;2023-04-16T00:06:33;99020.78;;;6.61;100.00
71573;BME280;59408;51.032;9.410;2023-04-16T00:09:00;99010.75;;;6.62;100.00
71573;BME280;59408;51.032;9.410;2023-04-16T00:11:28;99017.78;;;6.63;100.00
71573;BME280;59408;51.032;9.410;2023-04-16T00:13:55;99011.25;;;6.64;100.00
71573;BME280;59408;51.032;9.410;2023-04-16T00:16:23;99013.97;;;6.64;100.00
71573;BME280;59408;51.032;9.410;2023-04-16T00:18:50;99017.78;;;6.63;100.00
71573;BME280;59408;51.032;9.410;2023-04-16T00:21:16;99006.94;;;6.63;100.00
71573;BME280;59408;51.032;9.410;2023-04-16T00:23:43;99019.69;;;6.62;100.00
71573;BME280;59408;51.032;9.410;2023-04-16T00:26:09;99017.28;;;6.61;100.00
71573;BME280;59408;51.032;9.410;2023-04-16T00:28:37;99012.47;;;6.58;100.00
71573;BME280;59408;51.032;9.410;2023-04-16T00:31:04;99015.19;;;6.58;100.00
71573;BME280;59408;51.032;9.410;2023-04-16T00:33:33;99015.50;;;6.56;100.00
71573;BME280;59408;51.032;9.410;2023-04-16T00:36:00;99021.41;;;6.58;100.00
71573;BME280;59408;51.032;9.410;2023-04-16T00:38:27;99024.13;;;6.58;100.00
71573;BME280;59408;51.032;9.410;2023-04-16T00:40:53;99017.28;;;6.61;100.00
71573;BME280;59408;51.032;9.410;2023-04-16T00:43:21;99018.56;;;6.63;100.00
71573;BME280;59408;51.032;9.410;2023-04-16T00:45:50;99018.09;;;6.61;100.00
71573;BME280;59408;51.032;9.410;2023-04-16T00:48:17;99014.41;;;6.66;100.00
71573;BME280;59408;51.032;9.410;2023-04-16T00:50:46;99023.50;;;6.61;100.00
71573;BME280;59408;51.032;9.410;2023-04-16T00:53:13;99021.59;;;6.62;100.00
71573;BME280;59408;51.032;9.410;2023-04-16T00:55:40;99022.41;;;6.62;100.00
71573;BME280;59408;51.032;9.410;2023-04-16T00:58:06;99027.16;;;6.65;100.00
71573;BME280;59408;51.032;9.410;2023-04-16T01:00:33;99022.41;;;6.62;100.00
71573;BME280;59408;51.032;9.410;2023-04-16T01:03:03;99028.63;;;6.63;100.00
71573;BME280;59408;51.032;9.410;2023-04-16T01:05:30;99029.22;;;6.60;100.00
71573;BME280;59408;51.032;9.410;2023-04-16T01:08:00;99029.84;;;6.57;100.00
71573;BME280;59408;51.032;9.410;2023-04-16T01:10:27;99019.81;;;6.57;100.00
71573;BME280;59408;51.032;9.410;2023-04-16T01:12:53;99026.34;;;6.56;100.00
71573;BME280;59408;51.032;9.410;2023-04-16T01:15:20;99027.47;;;6.55;100.00
71573;BME280;59408;51.032;9.410;2023-04-16T01:17:47;99037.19;;;6.56;100.00
71573;BME280;59408;51.032;9.410;2023-04-16T01:20:15;99034.00;;;6.54;100.00
71573;BME280;59408;51.032;9.410;2023-04-16T01:22:43;99037.31;;;6.51;100.00
71573;BME280;59408;51.032;9.410;2023-04-16T01:25:13;99034.31;;;6.53;100.00
71573;BME280;59408;51.032;9.410;2023-04-16T01:27:40;99043.72;;;6.55;100.00
71573;BME280;59408;51.032;9.410;2023-04-16T01:30:07;99037.19;;;6.56;100.00
71573;BME280;59408;51.032;9.410;2023-04-16T01:32:34;99038.63;;;6.54;100.00
71573;BME280;59408;51.032;9.410;2023-04-16T01:35:04;99036.88;;;6.58;100.00
71573;BME280;59408;51.032;9.410;2023-04-16T01:37:30;99044.03;;;6.54;100.00
71573;BME280;59408;51.032;9.410;2023-04-16T01:39:58;99039.72;;;6.53;100.00
71573;BME280;59408;51.032;9.410;2023-04-16T01:42:25;99047.38;;;6.50;100.00
71573;BME280;59408;51.032;9.410;2023-04-16T01:44:52;99046.88;;;6.48;100.00
71573;BME280;59408;51.032;9.410;2023-04-16T01:47:18;99041.44;;;6.48;100.00
71573;BME280;59408;51.032;9.410;2023-04-16T01:49:45;99050.38;;;6.49;100.00
71573;BME280;59408;51.032;9.410;2023-04-16T01:52:12;99045.28;;;6.47;100.00
71573;BME280;59408;51.032;9.410;2023-04-16T01:54:38;99050.06;;;6.50;100.00
71573;BME280;59408;51.032;9.410;2023-04-16T01:57:06;99049.28;;;6.50;100.00
71573;BME280;59408;51.032;9.410;2023-04-16T01:59:33;99048.97;;;6.51;100.00
71573;BME280;59408;51.032;9.410;2023-04-16T02:02:00;99052.16;;;6.54;100.00
71573;BME280;59408;51.032;9.410;2023-04-16T02:04:27;99044.69;;;6.59;100.00
71573;BME280;59408;51.032;9.410;2023-04-16T02:06:54;99053.13;;;6.58;100.00
71573;BME280;59408;51.032;9.410;2023-04-16T02:09:20;99052.66;;;6.56;100.00
71573;BME280;59408;51.032;9.410;2023-04-16T02:11:47;99062.56;;;6.60;100.00
71573;BME280;59408;51.032;9.410;2023-04-16T02:14:15;99056.63;;;6.58;100.00
71573;BME280;59408;51.032;9.410;2023-04-16T02:16:41;99058.38;;;6.54;100.00
71573;BME280;59408;51.032;9.410;2023-04-16T02:19:08;99056.47;;;6.55;100.00
71573;BME280;59408;51.032;9.410;2023-04-16T02:21:35;99061.91;;;6.55;100.00
71573;BME280;59408;51.032;9.410;2023-04-16T02:24:02;99053.78;;;6.55;100.00
71573;BME280;59408;51.032;9.410;2023-04-16T02:26:28;99063.50;;;6.56;100.00
71573;BME280;59408;51.032;9.410;2023-04-16T02:28:55;99059.66;;;6.57;100.00
71573;BME280;59408;51.032;9.410;2023-04-16T02:31:23;99059.19;;;6.55;100.00
71573;BME280;59408;51.032;9.410;2023-04-16T02:33:50;99051.06;;;6.55;100.00
71573;BME280;59408;51.032;9.410;2023-04-16T02:36:16;99059.50;;;6.53;100.00
71573;BME280;59408;51.032;9.410;2023-04-16T02:38:43;99058.19;;;6.50;100.00
71573;BME280;59408;51.032;9.410;2023-04-16T02:41:09;99052.28;;;6.48;100.00
71573;BME280;59408;51.032;9.410;2023-04-16T02:43:36;99051.19;;;6.49;100.00
71573;BME280;59408;51.032;9.410;2023-04-16T02:46:03;99058.00;;;6.47;100.00
71573;BME280;59408;51.032;9.410;2023-04-16T02:48:31;99056.44;;;6.46;100.00
71573;BME280;59408;51.032;9.410;2023-04-16T02:50:58;99058.34;;;6.45;100.00
71573;BME280;59408;51.032;9.410;2023-04-16T02:53:25;99059.44;;;6.44;100.00
71573;BME280;59408;51.032;9.410;2023-04-16T02:55:52;99061.16;;;6.40;100.00
71573;BME280;59408;51.032;9.410;2023-04-16T02:58:20;99058.16;;;6.42;100.00
71573;BME280;59408;51.032;9.410;2023-04-16T03:00:46;99058.47;;;6.40;100.00
71573;BME280;59408;51.032;9.410;2023-04-16T03:03:13;99065.69;;;6.45;100.00
71573;BME280;59408;51.032;9.410;2023-04-16T03:05:42;99065.97;;;6.43;100.00
71573;BME280;59408;51.032;9.410;2023-04-16T03:08:08;99066.28;;;6.42;100.00
71573;BME280;59408;51.032;9.410;2023-04-16T03:10:35;99054.94;;;6.40;100.00
71573;BME280;59408;51.032;9.410;2023-04-16T03:13:02;99064.19;;;6.39;100.00
71573;BME280;59408;51.032;9.410;2023-04-16T03:15:29;99068.00;;;6.38;100.00
71573;BME280;59408;51.032;9.410;2023-04-16T03:17:56;99064.03;;;6.35;100.00
71573;BME280;59408;51.032;9.410;2023-04-16T03:20:23;99066.25;;;6.33;100.00
71573;BME280;59408;51.032;9.410;2023-04-16T03:22:51;99069.75;;;6.34;100.00
71573;BME280;59408;51.032;9.410;2023-04-16T03:25:18;99068.16;;;6.33;100.00
71573;BME280;59408;51.032;9.410;2023-04-16T03:27:44;99067.03;;;6.34;100.00
71573;BME280;59408;51.032;9.410;2023-04-16T03:30:11;99067.84;;;6.34;100.00
71573;BME280;59408;51.032;9.410;2023-04-16T03:32:39;99065.44;;;6.33;100.00
71573;BME280;59408;51.032;9.410;2023-04-16T03:35:06;99070.84;;;6.33;100.00
71573;BME280;59408;51.032;9.410;2023-04-16T03:37:33;99072.75;;;6.32;100.00
71573;BME280;59408;51.032;9.410;2023-04-16T03:40:02;99072.97;;;6.36;100.00
71573;BME280;59408;51.032;9.410;2023-04-16T03:42:28;99075.16;;;6.34;100.00
71573;BME280;59408;51.032;9.410;2023-04-16T03:44:55;99075.47;;;6.32;100.00
71573;BME280;59408;51.032;9.410;2023-04-16T03:47:21;99080.59;;;6.34;100.00
71573;BME280;59408;51.032;9.410;2023-04-16T03:49:48;99077.06;;;6.33;100.00
71573;BME280;59408;51.032;9.410;2023-04-16T03:52:15;99069.75;;;6.34;100.00
71573;BME280;59408;51.032;9.410;2023-04-16T03:54:42;99067.53;;;6.36;100.00
71573;BME280;59408;51.032;9.410;2023-04-16T03:57:10;99077.06;;;6.33;100.00
71573;BME280;59408;51.032;9.410;2023-04-16T03:59:36;99073.25;;;6.34;100.00
71573;BME280;59408;51.032;9.410;2023-04-16T04:02:03;99076.63;;;6.40;100.00
71573;BME280;59408;51.032;9.410;2023-04-16T04:04:29;99081.88;;;6.36;100.00
71573;BME280;59408;51.032;9.410;2023-04-16T04:06:56;99076.47;;;6.36;100.00
71573;BME280;59408;51.032;9.410;2023-04-16T04:09:23;99079.78;;;6.33;100.00
71573;BME280;59408;51.032;9.410;2023-04-16T04:11:50;99077.25;;;6.37;100.00
71573;BME280;59408;51.032;9.410;2023-04-16T04:14:17;99074.56;;;6.37;100.00
71573;BME280;59408;51.032;9.410;2023-04-16T04:16:44;99080.78;;;6.37;100.00
71573;BME280;59408;51.032;9.410;2023-04-16T04:19:11;99086.97;;;6.38;100.00
71573;BME280;59408;51.032;9.410;2023-04-16T04:21:38;99085.06;;;6.38;100.00
71573;BME280;59408;51.032;9.410;2023-04-16T04:24:04;99085.41;;;6.37;100.00
71573;BME280;59408;51.032;9.410;2023-04-16T04:26:31;99087.47;;;6.40;100.00
71573;BME280;59408;51.032;9.410;2023-04-16T04:28:57;99096.22;;;6.37;100.00
71573;BME280;59408;51.032;9.410;2023-04-16T04:31:26;99092.72;;;6.36;100.00
71573;BME280;59408;51.032;9.410;2023-04-16T04:33:52;99097.63;;;6.34;100.00
71573;BME280;59408;51.032;9.410;2023-04-16T04:36:19;99100.50;;;6.38;100.00
71573;BME280;59408;51.032;9.410;2023-04-16T04:38:45;99096.53;;;6.35;100.00
71573;BME280;59408;51.032;9.410;2023-04-16T04:41:12;99097.63;;;6.34;100.00
71573;BME280;59408;51.032;9.410;2023-04-16T04:43:39;99101.16;;;6.35;100.00
71573;BME280;59408;51.032;9.410;2023-04-16T04:46:05;99098.44;;;6.35;100.00
71573;BME280;59408;51.032;9.410;2023-04-16T04:48:33;99102.75;;;6.36;100.00
71573;BME280;59408;51.032;9.410;2023-04-16T04:51:00;99098.94;;;6.37;100.00
71573;BME280;59408;51.032;9.410;2023-04-16T04:53:29;99116.31;;;6.36;100.00
71573;BME280;59408;51.032;9.410;2023-04-16T04:55:56;99111.69;;;6.36;100.00
71573;BME280;59408;51.032;9.410;2023-04-16T04:58:34;99115.34;;;6.40;100.00
71573;BME280;59408;51.032;9.410;2023-04-16T05:01:01;99114.56;;;6.40;100.00
71573;BME280;59408;51.032;9.410;2023-04-16T05:03:27;99119.06;;;6.44;100.00
71573;BME280;59408;51.032;9.410;2023-04-16T05:05:55;99119.38;;;6.43;100.00
71573;BME280;59408;51.032;9.410;2023-04-16T05:08:22;99123.19;;;6.42;100.00
71573;BME280;59408;51.032;9.410;2023-04-16T05:10:49;99125.59;;;6.43;100.00
71573;BME280;59408;51.032;9.410;2023-04-16T05:13:15;99129.59;;;6.46;100.00
71573;BME280;59408;51.032;9.410;2023-04-16T05:15:42;99132.31;;;6.46;100.00
71573;BME280;59408;51.032;9.410;2023-04-16T05:18:08;99136.91;;;6.45;100.00
71573;BME280;59408;51.032;9.410;2023-04-16T05:20:35;99136.13;;;6.45;100.00
71573;BME280;59408;51.032;9.410;2023-04-16T05:23:03;99136.28;;;6.48;100.00
71573;BME280;59408;51.032;9.410;2023-04-16T05:25:29;99142.50;;;6.49;100.00
71573;BME280;59408;51.032;9.410;2023-04-16T05:27:56;99142.50;;;6.49;100.00
71573;BME280;59408;51.032;9.410;2023-04-16T05:30:22;99149.03;;;6.48;100.00
71573;BME280;59408;51.032;9.410;2023-04-16T05:32:49;99156.34;;;6.47;100.00
71573;BME280;59408;51.032;9.410;2023-04-16T05:35:15;99150.94;;;6.47;100.00
71573;BME280;59408;51.032;9.410;2023-04-16T05:37:43;99148.56;;;6.46;100.00
71573;BME280;59408;51.032;9.410;2023-04-16T05:40:12;99157.16;;;6.48;100.00
71573;BME280;59408;51.032;9.410;2023-04-16T05:42:39;99163.88;;;6.50;100.00
71573;BME280;59408;51.032;9.410;2023-04-16T05:45:07;99158.75;;;6.49;100.00
71573;BME280;59408;51.032;9.410;2023-04-16T05:47:33;99165.47;;;6.51;100.00
71573;BME280;59408;51.032;9.410;2023-04-16T05:50:00;99165.47;;;6.51;100.00
71573;BME280;59408;51.032;9.410;2023-04-16T05:52:27;99169.81;;;6.53;100.00
71573;BME280;59408;51.032;9.410;2023-04-16T05:54:53;99178.44;;;6.55;100.00
71573;BME280;59408;51.032;9.410;2023-04-16T05:57:21;99177.78;;;6.58;100.00
71573;BME280;59408;51.032;9.410;2023-04-16T05:59:48;99178.91;;;6.57;100.00
71573;BME280;59408;51.032;9.410;2023-04-16T06:02:15;99179.41;;;6.59;100.00
71573;BME280;59408;51.032;9.410;2023-04-16T06:04:41;99179.41;;;6.59;100.00
71573;BME280;59408;51.032;9.410;2023-04-16T06:07:08;99181.59;;;6.57;100.00
71573;BME280;59408;51.032;9.410;2023-04-16T06:09:35;99179.22;;;6.55;100.00
71573;BME280;59408;51.032;9.410;2023-04-16T06:12:01;99188.78;;;6.53;100.00
71573;BME280;59408;51.032;9.410;2023-04-16T06:14:30;99189.06;;;6.51;100.00
71573;BME280;59408;51.032;9.410;2023-04-16T06:16:56;99193.25;;;6.57;100.00
71573;BME280;59408;51.032;9.410;2023-04-16T06:19:23;99196.28;;;6.56;100.00
71573;BME280;59408;51.032;9.410;2023-04-16T06:21:50;99192.78;;;6.55;100.00
71573;BME280;59408;51.032;9.410;2023-04-16T06:24:16;99198.50;;;6.54;100.00
71573;BME280;59408;51.032;9.410;2023-04-16T06:26:43;99193.38;;;6.52;100.00
71573;BME280;59408;51.032;9.410;2023-04-16T06:29:09;99195.78;;;6.54;100.00
71573;BME280;59408;51.032;9.410;2023-04-16T06:31:38;99202.81;;;6.55;100.00
71573;BME280;59408;51.032;9.410;2023-04-16T06:34:04;99204.09;;;6.57;100.00
71573;BME280;59408;51.032;9.410;2023-04-16T06:36:31;99199.78;;;6.56;100.00
71573;BME280;59408;51.032;9.410;2023-04-16T06:38:58;99206.78;;;6.57;100.00
71573;BME280;59408;51.032;9.410;2023-04-16T06:41:24;99197.88;;;6.57;100.00
71573;BME280;59408;51.032;9.410;2023-04-16T06:43:51;99199.47;;;6.58;100.00
71573;BME280;59408;51.032;9.410;2023-04-16T06:46:17;99204.59;;;6.59;100.00
71573;BME280;59408;51.032;9.410;2023-04-16T06:48:45;99214.13;;;6.57;100.00
71573;BME280;59408;51.032;9.410;2023-04-16T06:51:12;99210.00;;;6.59;100.00
71573;BME280;59408;51.032;9.410;2023-04-16T06:53:39;99210.00;;;6.59;100.00
71573;BME280;59408;51.032;9.410;2023-04-16T06:56:06;99212.72;;;6.59;100.00
71573;BME280;59408;51.032;9.410;2023-04-16T06:58:32;99214.63;;;6.59;100.00
71573;BME280;59408;51.032;9.410;2023-04-16T07:00:59;99214.31;;;6.60;100.00
71573;BME280;59408;51.032;9.410;2023-04-16T07:03:26;99215.72;;;6.58;100.00
71573;BME280;59408;51.032;9.410;2023-04-16T07:05:54;99221.66;;;6.60;100.00
71573;BME280;59408;51.032;9.410;2023-04-16T07:08:21;99229.19;;;6.63;100.00
71573;BME280;59408;51.032;9.410;2023-04-16T07:10:47;99229.47;;;6.61;100.00
71573;BME280;59408;51.032;9.410;2023-04-16T07:13:14;99227.56;;;6.62;100.00
71573;BME280;59408;51.032;9.410;2023-04-16T07:15:40;99227.38;;;6.58;100.00
71573;BME280;59408;51.032;9.410;2023-04-16T07:18:07;99229.59;;;6.56;100.00
71573;BME280;59408;51.032;9.410;2023-04-16T07:20:33;99235.50;;;6.58;100.00
71573;BME280;59408;51.032;9.410;2023-04-16T07:23:01;99238.84;;;6.55;100.00
71573;BME280;59408;51.032;9.410;2023-04-16T07:25:28;99242.34;;;6.56;100.00
71573;BME280;59408;51.032;9.410;2023-04-16T07:27:55;99241.56;;;6.55;100.00
71573;BME280;59408;51.032;9.410;2023-04-16T07:30:21;99242.03;;;6.57;100.00
71573;BME280;59408;51.032;9.410;2023-04-16T07:32:49;99254.31;;;6.55;100.00
71573;BME280;59408;51.032;9.410;2023-04-16T07:35:16;99249.34;;;6.57;100.00
71573;BME280;59408;51.032;9.410;2023-04-16T07:37:43;99257.00;;;6.55;100.00
71573;BME280;59408;51.032;9.410;2023-04-16T07:40:11;99261.31;;;6.56;100.00
71573;BME280;59408;51.032;9.410;2023-04-16T07:42:37;99260.53;;;6.55;100.00
71573;BME280;59408;51.032;9.410;2023-04-16T07:45:05;99257.00;;;6.55;100.00
71573;BME280;59408;51.032;9.410;2023-04-16T07:47:32;99266.75;;;6.56;100.00
71573;BME280;59408;51.032;9.410;2023-04-16T07:49:58;99271.03;;;6.57;100.00
71573;BME280;59408;51.032;9.410;2023-04-16T07:52:25;99271.38;;;6.55;100.00
71573;BME280;59408;51.032;9.410;2023-04-16T07:54:51;99265.16;;;6.55;100.00
71573;BME280;59408;51.032;9.410;2023-04-16T07:57:20;99276.97;;;6.59;100.00
71573;BME280;59408;51.032;9.410;2023-04-16T07:59:46;99276.44;;;6.57;100.00
71573;BME280;59408;51.032;9.410;2023-04-16T08:02:14;99282.22;;;6.55;100.00
71573;BME280;59408;51.032;9.410;2023-04-16T08:04:42;99290.63;;;6.54;100.00
71573;BME280;59408;51.032;9.410;2023-04-16T08:07:09;99288.72;;;6.54;100.00
71573;BME280;59408;51.032;9.410;2023-04-16T08:09:46;99290.63;;;6.54;100.00
71573;BME280;59408;51.032;9.410;2023-04-16T08:12:12;99293.94;;;6.50;100.00
71573;BME280;59408;51.032;9.410;2023-04-16T08:14:40;99294.75;;;6.51;100.00
71573;BME280;59408;51.032;9.410;2023-04-16T08:17:07;99297.75;;;6.49;100.00
71573;BME280;59408;51.032;9.410;2023-04-16T08:19:33;99301.78;;;6.52;100.00
71573;BME280;59408;51.032;9.410;2023-04-16T08:22:00;99302.56;;;6.53;100.00
71573;BME280;59408;51.032;9.410;2023-04-16T08:24:27;99309.09;;;6.51;100.00
71573;BME280;59408;51.032;9.410;2023-04-16T08:26:53;99306.19;;;6.48;100.00
71573;BME280;59408;51.032;9.410;2023-04-16T08:29:25;99312.00;;;6.55;100.00
71573;BME280;59408;51.032;9.410;2023-04-16T08:31:54;99310.41;;;6.54;100.00
71573;BME280;59408;51.032;9.410;2023-04-16T08:34:21;99315.19;;;6.57;100.00
71573;BME280;59408;51.032;9.410;2023-04-16T08:36:48;99324.44;;;6.56;100.00
71573;BME280;59408;51.032;9.410;2023-04-16T08:39:15;99322.66;;;6.51;100.00
71573;BME280;59408;51.032;9.410;2023-04-16T08:41:43;99327.78;;;6.53;100.00
71573;BME280;59408;51.032;9.410;2023-04-16T08:44:14;99326.97;;;6.53;100.00
71573;BME280;59408;51.032;9.410;2023-04-16T08:46:45;99326.97;;;6.53;100.00
71573;BME280;59408;51.032;9.410;2023-04-16T08:49:15;99328.88;;;6.52;100.00
71573;BME280;59408;51.032;9.410;2023-04-16T08:51:44;99344.13;;;6.48;100.00
71573;BME280;59408;51.032;9.410;2023-04-16T08:54:30;99344.34;;;6.51;100.00
71573;BME280;59408;51.032;9.410;2023-04-16T08:56:57;99339.22;;;6.50;100.00
71573;BME280;59408;51.032;9.410;2023-04-16T08:59:24;99350.06;;;6.50;100.00
71573;BME280;59408;51.032;9.410;2023-04-16T09:01:54;99350.66;;;6.47;100.00
71573;BME280;59408;51.032;9.410;2023-04-16T09:04:25;99349.25;;;6.49;100.00
71573;BME280;59408;51.032;9.410;2023-04-16T09:06:52;99354.16;;;6.47;100.00
71573;BME280;59408;51.032;9.410;2023-04-16T09:09:20;99359.41;;;6.44;100.00
71573;BME280;59408;51.032;9.410;2023-04-16T09:11:50;99366.72;;;6.43;100.00
71573;BME280;59408;51.032;9.410;2023-04-16T09:14:16;99363.09;;;6.48;100.00
71573;BME280;59408;51.032;9.410;2023-04-16T09:16:44;99375.16;;;6.42;100.00
71573;BME280;59408;51.032;9.410;2023-04-16T09:19:11;99378.56;;;6.47;100.00
71573;BME280;59408;51.032;9.410;2023-04-16T09:21:39;99384.97;;;6.51;100.00
71573;BME280;59408;51.032;9.410;2023-04-16T09:24:07;99378.16;;;6.54;100.00
71573;BME280;59408;51.032;9.410;2023-04-16T09:26:34;99389.97;;;6.58;100.00
71573;BME280;59408;51.032;9.410;2023-04-16T09:29:01;99388.38;;;6.57;100.00
71573;BME280;59408;51.032;9.410;2023-04-16T09:31:27;99388.06;;;6.59;100.00
71573;BME280;59408;51.032;9.410;2023-04-16T09:34:01;99394.13;;;6.56;100.00
71573;BME280;59408;51.032;9.410;2023-04-16T09:36:28;99395.69;;;6.57;100.00
71573;BME280;59408;51.032;9.410;2023-04-16T09:38:57;99403.53;;;6.58;100.00
71573;BME280;59408;51.032;9.410;2023-04-16T09:41:25;99397.44;;;6.53;100.00
71573;BME280;59408;51.032;9.410;2023-04-16T09:43:55;99397.84;;;6.46;100.00
71573;BME280;59408;51.032;9.410;2023-04-16T09:46:23;99407.25;;;6.48;100.00
71573;BME280;59408;51.032;9.410;2023-04-16T09:48:50;99401.53;;;6.50;100.00
71573;BME280;59408;51.032;9.410;2023-04-16T09:51:17;99411.56;;;6.49;100.00
71573;BME280;59408;51.032;9.410;2023-04-16T09:53:43;99412.19;;;6.46;100.00
71573;BME280;59408;51.032;9.410;2023-04-16T09:56:12;99415.59;;;6.52;100.00
71573;BME280;59408;51.032;9.410;2023-04-16T09:58:38;99423.03;;;6.46;100.00
71573;BME280;59408;51.032;9.410;2023-04-16T10:01:07;99416.69;;;6.51;100.00
71573;BME280;59408;51.032;9.410;2023-04-16T10:03:35;99430.03;;;6.47;100.00
71573;BME280;59408;51.032;9.410;2023-04-16T10:06:14;99428.25;;;6.43;100.00
71573;BME280;59408;51.032;9.410;2023-04-16T10:08:42;99431.16;;;6.46;100.00
71573;BME280;59408;51.032;9.410;2023-04-16T10:11:10;99422.41;;;6.49;100.00
71573;BME280;59408;51.032;9.410;2023-04-16T10:13:37;99423.34;;;6.45;100.00
71573;BME280;59408;51.032;9.410;2023-04-16T10:16:05;99430.44;;;6.55;100.00
71573;BME280;59408;51.032;9.410;2023-04-16T10:18:32;99438.59;;;6.55;100.00
71573;BME280;59408;51.032;9.410;2023-04-16T10:21:00;99442.09;;;6.55;100.00
71573;BME280;59408;51.032;9.410;2023-04-16T10:23:28;99444.41;;;6.62;100.00
71573;BME280;59408;51.032;9.410;2023-04-16T10:25:57;99441.09;;;6.65;100.00
71573;BME280;59408;51.032;9.410;2023-04-16T10:28:26;99437.97;;;6.71;100.00
71573;BME280;59408;51.032;9.410;2023-04-16T10:30:54;99448.91;;;6.66;100.00
71573;BME280;59408;51.032;9.410;2023-04-16T10:33:23;99443.78;;;6.78;100.00
71573;BME280;59408;51.032;9.410;2023-04-16T10:35:51;99445.16;;;6.76;100.00
71573;BME280;59408;51.032;9.410;2023-04-16T10:38:32;99450.41;;;6.72;100.00
71573;BME280;59408;51.032;9.410;2023-04-16T10:41:00;99444.06;;;6.77;100.00
71573;BME280;59408;51.032;9.410;2023-04-16T10:43:29;99445.47;;;6.88;100.00
71573;BME280;59408;51.032;9.410;2023-04-16T10:45:56;99446.03;;;6.99;100.00
71573;BME280;59408;51.032;9.410;2023-04-16T10:48:23;99453.19;;;6.95;100.00
71573;BME280;59408;51.032;9.410;2023-04-16T10:50:54;99440.78;;;7.16;100.00
71573;BME280;59408;51.032;9.410;2023-04-16T10:53:22;99442.56;;;7.34;100.00
71573;BME280;59408;51.032;9.410;2023-04-16T10:56:11;99437.25;;;7.51;100.00
71573;BME280;59408;51.032;9.410;2023-04-16T10:58:39;99444.34;;;7.61;100.00
71573;BME280;59408;51.032;9.410;2023-04-16T11:01:06;99448.84;;;7.66;100.00
71573;BME280;59408;51.032;9.410;2023-04-16T11:03:33;99446.69;;;7.54;100.00
71573;BME280;59408;51.032;9.410;2023-04-16T11:06:10;99449.28;;;7.59;100.00
71573;BME280;59408;51.032;9.410;2023-04-16T11:08:37;99452.50;;;7.61;100.00
71573;BME280;59408;51.032;9.410;2023-04-16T11:11:19;99455.06;;;7.66;100.00
71573;BME280;59408;51.032;9.410;2023-04-16T11:13:47;99449.69;;;7.75;100.00
71573;BME280;59408;51.032;9.410;2023-04-16T11:16:15;99450.50;;;7.75;100.00
71573;BME280;59408;51.032;9.410;2023-04-16T11:18:44;99458.34;;;7.77;100.00
71573;BME280;59408;51.032;9.410;2023-04-16T11:21:17;99458.03;;;7.78;100.00
71573;BME280;59408;51.032;9.410;2023-04-16T11:23:49;99459.50;;;7.84;100.00
71573;BME280;59408;51.032;9.410;2023-04-16T11:26:23;99464.19;;;7.92;100.00
71573;BME280;59408;51.032;9.410;2023-04-16T11:28:54;99459.56;;;7.93;100.00
71573;BME280;59408;51.032;9.410;2023-04-16T11:31:22;99456.19;;;7.87;100.00
71573;BME280;59408;51.032;9.410;2023-04-16T11:33:49;99467.34;;;7.86;100.00
71573;BME280;59408;51.032;9.410;2023-04-16T11:36:16;99460.75;;;7.78;100.00
71573;BME280;59408;51.032;9.410;2023-04-16T11:38:42;99466.69;;;7.80;100.00
71573;BME280;59408;51.032;9.410;2023-04-16T11:41:09;99468.34;;;7.90;100.00
71573;BME280;59408;51.032;9.410;2023-04-16T11:43:36;99467.09;;;7.96;100.00
71573;BME280;59408;51.032;9.410;2023-04-16T11:46:05;99463.72;;;7.90;100.00
71573;BME280;59408;51.032;9.410;2023-04-16T11:48:51;99464.31;;;7.87;100.00
71573;BME280;59408;51.032;9.410;2023-04-16T11:51:18;99472.97;;;7.89;100.00
71573;BME280;59408;51.032;9.410;2023-04-16T11:53:51;99468.56;;;8.02;100.00
71573;BME280;59408;51.032;9.410;2023-04-16T11:56:25;99472.41;;;8.01;100.00
71573;BME280;59408;51.032;9.410;2023-04-16T11:59:07;99474.41;;;8.18;100.00
71573;BME280;59408;51.032;9.410;2023-04-16T12:01:36;99473.81;;;8.29;100.00
71573;BME280;59408;51.032;9.410;2023-04-16T12:04:03;99468.88;;;8.31;100.00
71573;BME280;59408;51.032;9.410;2023-04-16T12:06:30;99475.16;;;8.41;100.00
71573;BME280;59408;51.032;9.410;2023-04-16T12:08:57;99463.16;;;8.42;100.00
71573;BME280;59408;51.032;9.410;2023-04-16T12:11:36;99470.19;;;8.43;100.00
71573;BME280;59408;51.032;9.410;2023-04-16T12:14:06;99465.41;;;8.48;100.00
71573;BME280;59408;51.032;9.410;2023-04-16T12:16:33;99473.19;;;8.72;100.00
71573;BME280;59408;51.032;9.410;2023-04-16T12:19:04;99469.53;;;8.85;100.00
71573;BME280;59408;51.032;9.410;2023-04-16T12:21:40;99475.09;;;8.71;100.00
71573;BME280;59408;51.032;9.410;2023-04-16T12:24:08;99465.00;;;8.63;100.00
71573;BME280;59408;51.032;9.410;2023-04-16T12:26:39;99475.84;;;8.55;100.00
71573;BME280;59408;51.032;9.410;2023-04-16T12:29:18;99472.94;;;8.51;100.00
71573;BME280;59408;51.032;9.410;2023-04-16T12:31:45;99470.25;;;8.60;100.00
71573;BME280;59408;51.032;9.410;2023-04-16T12:34:13;99479.69;;;8.54;100.00
71573;BME280;59408;51.032;9.410;2023-04-16T12:36:40;99470.81;;;8.39;100.00
71573;BME280;59408;51.032;9.410;2023-04-16T12:39:07;99483.28;;;8.41;100.00
71573;BME280;59408;51.032;9.410;2023-04-16T12:41:35;99478.88;;;8.53;100.00
71573;BME280;59408;51.032;9.410;2023-04-16T12:44:04;99481.91;;;8.52;100.00
71573;BME280;59408;51.032;9.410;2023-04-16T12:46:31;99479.22;;;8.60;100.00
71573;BME280;59408;51.032;9.410;2023-04-16T12:48:58;99475.09;;;8.63;100.00
71573;BME280;59408;51.032;9.410;2023-04-16T12:51:26;99481.03;;;8.73;100.00
71573;BME280;59408;51.032;9.410;2023-04-16T12:53:53;99483.72;;;8.65;100.00
71573;BME280;59408;51.032;9.410;2023-04-16T12:56:20;99477.50;;;8.64;100.00
71573;BME280;59408;51.032;9.410;2023-04-16T12:58:47;99487.69;;;8.59;100.00
71573;BME280;59408;51.032;9.410;2023-04-16T13:01:13;99471.88;;;8.61;100.00
71573;BME280;59408;51.032;9.410;2023-04-16T13:03:40;99480.00;;;8.52;100.00